Time;durP1;ratioP1;P1;durP2;ratioP2;P2;SDS_P1;SDS_P2;PMS_P1;PMS_P2;Temp;Humidity;BMP_temperature;BMP_pressure;BME280_temperature;BME280_humidity;BME280_pressure;Samples;Min_cycle;Max_cycle;Signal;HPM_P1;HPM_P2
2022/10/28 00:02:02;;;;;;;12.85;4.13;;;19.60;99.60;;;;;;5053302;28;20465;-68
2022/10/28 00:04:27;;;;;;;13.40;4.25;;;19.60;99.70;;;;;;5053182;28;20033;-68
2022/10/28 00:06:53;;;;;;;12.30;3.72;;;19.50;99.70;;;;;;5052850;28;20058;-68
2022/10/28 00:09:18;;;;;;;11.35;3.90;;;19.60;99.70;;;;;;5053312;28;20438;-68
2022/10/28 00:11:44;;;;;;;11.02;3.90;;;19.60;99.60;;;;;;5045983;28;20489;-68
2022/10/28 00:14:10;;;;;;;11.95;4.15;;;19.60;99.60;;;;;;5036317;28;20063;-73
2022/10/28 00:16:36;;;;;;;9.30;3.97;;;19.60;99.60;;;;;;5032202;28;20109;-75
2022/10/28 00:19:04;;;;;;;13.30;4.38;;;19.60;99.60;;;;;;5032434;28;20025;-75
2022/10/28 00:21:33;;;;;;;10.63;4.22;;;19.60;99.70;;;;;;5033264;28;20462;-75
2022/10/28 00:23:59;;;;;;;11.63;4.13;;;19.60;99.70;;;;;;5032476;28;20033;-70
2022/10/28 00:26:30;;;;;;;7.20;3.53;;;19.60;99.70;;;;;;5032999;28;20045;-75
2022/10/28 00:28:58;;;;;;;8.67;3.70;;;19.60;99.70;;;;;;5031561;28;20029;-68
2022/10/28 00:31:26;;;;;;;11.43;4.10;;;19.60;99.70;;;;;;5032960;28;20057;-70
2022/10/28 00:33:53;;;;;;;10.45;3.90;;;19.60;99.60;;;;;;5032839;28;20018;-68
2022/10/28 00:36:20;;;;;;;10.80;4.28;;;19.60;99.60;;;;;;5032667;28;20040;-68
2022/10/28 00:38:48;;;;;;;11.73;4.10;;;19.60;99.70;;;;;;5032684;28;20497;-72
2022/10/28 00:41:25;;;;;;;11.55;4.07;;;19.60;99.70;;;;;;5033017;28;20018;-71
2022/10/28 00:43:54;;;;;;;12.02;4.03;;;19.60;99.70;;;;;;5032536;28;20076;-74
2022/10/28 00:46:29;;;;;;;12.48;4.00;;;19.60;99.60;;;;;;5032711;28;20033;-75
2022/10/28 00:49:22;;;;;;;10.40;3.90;;;19.50;99.70;;;;;;5032960;28;20018;-70
2022/10/28 00:51:54;;;;;;;11.88;4.13;;;19.50;99.70;;;;;;5032772;28;20111;-72
2022/10/28 00:54:21;;;;;;;10.30;3.75;;;19.60;99.70;;;;;;5032643;28;20032;-70
2022/10/28 00:56:52;;;;;;;8.65;3.65;;;19.50;99.70;;;;;;5032781;28;20033;-75
2022/10/28 00:59:26;;;;;;;9.77;4.10;;;19.50;99.70;;;;;;5032717;28;20033;-71
2022/10/28 01:01:52;;;;;;;13.18;3.95;;;19.50;99.80;;;;;;5032595;28;20021;-73
2022/10/28 01:04:19;;;;;;;10.10;3.92;;;19.50;99.80;;;;;;5032337;28;20022;-68
2022/10/28 01:06:46;;;;;;;10.13;3.50;;;19.50;99.80;;;;;;5032837;28;20088;-74
2022/10/28 01:09:11;;;;;;;13.10;4.20;;;19.50;99.80;;;;;;5032649;28;20459;-68
2022/10/28 01:11:37;;;;;;;12.00;3.72;;;19.50;99.80;;;;;;5032782;28;20029;-75
2022/10/28 01:14:30;;;;;;;9.23;3.58;;;19.50;99.80;;;;;;5032289;28;20061;-69
2022/10/28 01:17:08;;;;;;;10.73;4.07;;;19.50;99.90;;;;;;5032598;28;20032;-75
2022/10/28 01:20:10;;;;;;;9.80;3.80;;;19.50;99.70;;;;;;5032118;28;20378;-69
2022/10/28 01:22:44;;;;;;;12.43;3.65;;;19.50;99.80;;;;;;5032360;28;20048;-75
2022/10/28 01:25:29;;;;;;;12.77;4.10;;;19.50;99.80;;;;;;5030908;28;20124;-69
2022/10/28 01:28:07;;;;;;;11.38;3.95;;;19.50;99.80;;;;;;5032499;28;20494;-69
2022/10/28 01:31:05;;;;;;;8.57;3.55;;;19.50;99.80;;;;;;5032203;28;20030;-68
2022/10/28 01:33:37;;;;;;;6.75;3.72;;;19.50;99.80;;;;;;5032068;28;20092;-74
2022/10/28 01:36:09;;;;;;;13.25;4.15;;;19.40;99.80;;;;;;5032637;28;20104;-68
2022/10/28 01:38:57;;;;;;;9.38;3.70;;;19.40;99.80;;;;;;5032232;28;20064;-68
2022/10/28 01:41:32;;;;;;;7.45;3.70;;;19.40;99.80;;;;;;5031338;28;20026;-75
2022/10/28 01:44:08;;;;;;;10.77;3.70;;;19.40;99.80;;;;;;5030907;28;20025;-69
2022/10/28 01:46:40;;;;;;;12.38;3.72;;;19.50;99.80;;;;;;5032154;28;20095;-71
2022/10/28 01:49:38;;;;;;;8.63;3.42;;;19.40;99.80;;;;;;5032582;28;20031;-68
2022/10/28 01:52:07;;;;;;;9.90;4.03;;;19.40;99.90;;;;;;5036753;28;20442;-69
2022/10/28 01:54:35;;;;;;;8.48;4.10;;;19.40;99.80;;;;;;5035602;28;20033;-68
2022/10/28 01:57:03;;;;;;;9.48;3.78;;;19.40;99.90;;;;;;5034514;28;20065;-70
2022/10/28 01:59:31;;;;;;;11.20;4.47;;;19.40;99.90;;;;;;5035354;28;20391;-70
2022/10/28 02:01:57;;;;;;;8.45;3.60;;;19.40;99.90;;;;;;5035260;28;20014;-74
2022/10/28 02:04:22;;;;;;;9.65;3.65;;;19.40;99.90;;;;;;5035492;28;20366;-74
2022/10/28 02:06:53;;;;;;;9.75;3.60;;;19.30;99.90;;;;;;5034244;28;20390;-71
2022/10/28 02:10:08;;;;;;;12.02;4.40;;;19.40;99.80;;;;;;5035397;28;20064;-68
2022/10/28 02:12:37;;;;;;;11.80;4.28;;;19.40;99.90;;;;;;5052937;28;20048;-69
2022/10/28 02:15:32;;;;;;;7.57;3.88;;;19.40;99.80;;;;;;5053086;28;20029;-68
2022/10/28 02:18:25;;;;;;;9.15;4.15;;;19.30;99.90;;;;;;5022514;28;20033;-69
2022/10/28 02:21:13;;;;;;;9.50;3.78;;;19.30;99.80;;;;;;5035556;28;20022;-68
2022/10/28 02:23:52;;;;;;;11.25;4.05;;;19.30;99.80;;;;;;5035282;28;20025;-68
2022/10/28 02:26:26;;;;;;;11.23;3.72;;;19.30;99.80;;;;;;5034955;28;20065;-68
2022/10/28 02:29:07;;;;;;;12.93;4.20;;;19.30;99.80;;;;;;5035230;28;20084;-68
2022/10/28 02:31:39;;;;;;;9.57;3.97;;;19.30;99.90;;;;;;5034560;28;20053;-68
2022/10/28 02:34:10;;;;;;;9.30;4.32;;;19.30;99.90;;;;;;5035015;28;20026;-68
2022/10/28 02:36:41;;;;;;;8.75;3.90;;;19.20;99.90;;;;;;5034898;28;20052;-68
2022/10/28 02:39:07;;;;;;;11.27;4.60;;;19.30;99.90;;;;;;5034870;28;20033;-69
2022/10/28 02:41:36;;;;;;;10.45;4.35;;;19.20;99.80;;;;;;5034563;28;20026;-67
2022/10/28 02:44:08;;;;;;;14.07;4.25;;;19.20;99.90;;;;;;5034812;28;20084;-68
2022/10/28 02:46:36;;;;;;;;;;;19.30;99.80;;;;;;5033453;28;20037;-69
2022/10/28 02:49:05;;;;;;;15.40;4.60;;;19.30;99.80;;;;;;5034779;28;19905;-69
2022/10/28 02:51:37;;;;;;;7.53;3.70;;;19.30;99.70;;;;;;5034586;28;20471;-68
2022/10/28 02:54:21;;;;;;;9.70;4.05;;;19.20;99.80;;;;;;5034438;28;20025;-68
2022/10/28 02:57:09;;;;;;;9.32;4.40;;;19.20;99.90;;;;;;5034719;28;20398;-69
2022/10/28 02:59:35;;;;;;;12.27;4.40;;;19.20;99.90;;;;;;5034689;28;20433;-70
2022/10/28 03:02:01;;;;;;;12.70;4.18;;;19.20;99.80;;;;;;5033863;28;20466;-70
2022/10/28 03:04:27;;;;;;;10.00;3.90;;;19.20;99.80;;;;;;5034505;28;20029;-69
2022/10/28 03:06:53;;;;;;;14.20;4.03;;;19.20;99.90;;;;;;5034242;28;20094;-70
2022/10/28 03:09:18;;;;;;;11.40;4.13;;;19.20;99.90;;;;;;5034412;28;20090;-68
2022/10/28 03:11:44;;;;;;;12.82;4.63;;;19.20;99.90;;;;;;5034298;28;20029;-72
2022/10/28 03:14:10;;;;;;;9.75;3.58;;;19.20;99.80;;;;;;5034285;28;20026;-74
2022/10/28 03:16:36;;;;;;;11.20;4.38;;;19.20;99.90;;;;;;5034023;28;20048;-71
2022/10/28 03:19:01;;;;;;;8.25;3.58;;;19.10;99.80;;;;;;5034071;28;20021;-74
2022/10/28 03:21:27;;;;;;;10.38;4.35;;;19.10;99.90;;;;;;5034058;28;20478;-72
2022/10/28 03:23:53;;;;;;;9.32;3.92;;;19.10;99.90;;;;;;5033957;28;20470;-74
2022/10/28 03:26:19;;;;;;;12.02;3.55;;;19.10;99.90;;;;;;5033981;28;20080;-73
2022/10/28 03:28:44;;;;;;;8.27;3.90;;;19.10;99.90;;;;;;5033495;28;20057;-75
2022/10/28 03:31:10;;;;;;;11.45;4.53;;;19.10;99.90;;;;;;5033907;28;20053;-74
2022/10/28 03:33:35;;;;;;;14.35;4.15;;;19.10;99.90;;;;;;5033796;28;20532;-73
2022/10/28 03:36:01;;;;;;;10.00;4.40;;;19.10;99.90;;;;;;5033832;28;20040;-73
2022/10/28 03:38:26;;;;;;;9.93;3.88;;;19.10;99.90;;;;;;5033856;28;20474;-73
2022/10/28 03:40:52;;;;;;;9.73;3.80;;;19.10;99.90;;;;;;5033632;28;20445;-75
2022/10/28 03:43:18;;;;;;;9.82;3.88;;;19.10;99.90;;;;;;5033360;28;20030;-73
2022/10/28 03:45:43;;;;;;;10.15;4.00;;;19.10;99.90;;;;;;5033656;28;20477;-75
2022/10/28 03:48:09;;;;;;;8.20;3.70;;;19.10;99.90;;;;;;5033431;28;20033;-75
2022/10/28 03:50:35;;;;;;;13.57;4.00;;;19.10;99.90;;;;;;5033511;28;20352;-74
2022/10/28 03:53:01;;;;;;;13.30;4.07;;;19.10;99.90;;;;;;5033377;28;20108;-69
2022/10/28 03:55:26;;;;;;;12.27;4.90;;;19.10;99.90;;;;;;5033260;28;20530;-72
2022/10/28 03:57:52;;;;;;;9.15;4.38;;;19.10;99.90;;;;;;5033170;28;20040;-74
2022/10/28 04:00:19;;;;;;;12.63;4.72;;;19.10;99.90;;;;;;5033517;28;20489;-69
2022/10/28 04:02:51;;;;;;;15.80;4.68;;;19.10;99.90;;;;;;5033057;28;20386;-75
2022/10/28 04:05:19;;;;;;;12.50;4.70;;;19.00;99.90;;;;;;5033231;28;20025;-71
2022/10/28 04:07:45;;;;;;;10.60;4.68;;;19.00;99.90;;;;;;5033098;28;20026;-75
2022/10/28 04:10:10;;;;;;;11.70;4.35;;;19.00;99.90;;;;;;5033368;28;20029;-72
2022/10/28 04:12:36;;;;;;;10.80;3.78;;;19.00;99.90;;;;;;5032335;28;20133;-69
2022/10/28 04:15:01;;;;;;;10.85;4.05;;;19.00;99.90;;;;;;5033242;28;20017;-72
2022/10/28 04:17:27;;;;;;;10.15;4.07;;;19.00;99.90;;;;;;5032959;28;20029;-71
2022/10/28 04:19:53;;;;;;;14.90;4.63;;;18.90;99.90;;;;;;5032930;28;20072;-75
2022/10/28 04:22:18;;;;;;;9.93;4.53;;;19.00;99.90;;;;;;5032787;28;20083;-70
2022/10/28 04:24:44;;;;;;;10.93;4.43;;;19.00;99.90;;;;;;5032920;28;20056;-72
2022/10/28 04:27:09;;;;;;;8.70;4.63;;;18.90;99.90;;;;;;5032458;28;20076;-74
2022/10/28 04:29:35;;;;;;;9.00;4.53;;;19.00;99.90;;;;;;5033141;28;20036;-71
2022/10/28 04:32:01;;;;;;;12.20;4.15;;;19.00;99.90;;;;;;5032860;28;20034;-69
2022/10/28 04:34:26;;;;;;;12.10;4.78;;;19.00;99.90;;;;;;5032837;28;20028;-72
2022/10/28 04:36:52;;;;;;;15.05;4.68;;;18.90;99.90;;;;;;5032931;28;20131;-73
2022/10/28 04:39:17;;;;;;;12.80;4.28;;;19.00;99.90;;;;;;5032898;28;20048;-72
2022/10/28 04:41:43;;;;;;;10.98;3.90;;;19.00;99.90;;;;;;5032724;28;20033;-70
2022/10/28 04:44:08;;;;;;;13.20;4.75;;;19.00;99.90;;;;;;5033169;28;20029;-71
2022/10/28 04:46:34;;;;;;;12.90;3.92;;;18.90;99.90;;;;;;5031482;28;20051;-72
2022/10/28 04:48:59;;;;;;;15.10;4.18;;;19.00;99.90;;;;;;5032606;28;20105;-70
2022/10/28 04:51:25;;;;;;;11.95;4.10;;;18.90;99.90;;;;;;5032777;28;20259;-71
2022/10/28 04:53:50;;;;;;;11.73;4.40;;;18.90;99.90;;;;;;5032493;28;20018;-72
2022/10/28 04:56:16;;;;;;;13.80;4.20;;;18.90;99.90;;;;;;5032443;28;20099;-74
2022/10/28 04:58:42;;;;;;;12.63;4.72;;;18.90;99.90;;;;;;5032803;28;20021;-72
2022/10/28 05:01:09;;;;;;;18.85;4.63;;;18.90;99.90;;;;;;5036985;28;20497;-67
2022/10/28 05:03:35;;;;;;;12.63;4.70;;;18.80;99.90;;;;;;5047865;28;20118;-62
2022/10/28 05:06:01;;;;;;;8.38;4.28;;;18.90;99.30;;;;;;5048809;28;20426;-63
2022/10/28 05:08:27;;;;;;;11.43;4.60;;;18.90;99.10;;;;;;5037492;28;20017;-60
2022/10/28 05:10:53;;;;;;;14.93;5.82;;;19.00;98.90;;;;;;5048785;28;20029;-62
2022/10/28 05:13:19;;;;;;;11.52;6.57;;;19.00;99.00;;;;;;5057677;28;20075;-61
2022/10/28 05:15:47;;;;;;;15.77;5.65;;;19.00;98.70;;;;;;5052816;28;20025;-64
2022/10/28 05:18:13;;;;;;;14.60;5.00;;;19.00;98.90;;;;;;5048187;28;20025;-67
2022/10/28 05:20:39;;;;;;;12.77;4.25;;;19.00;98.70;;;;;;5050842;28;20021;-63
2022/10/28 05:23:04;;;;;;;10.13;3.95;;;19.00;98.80;;;;;;5048159;28;20066;-60
2022/10/28 05:25:30;;;;;;;14.88;4.50;;;19.10;98.60;;;;;;5052741;28;20040;-62
2022/10/28 05:27:59;;;;;;;12.02;4.72;;;19.20;98.40;;;;;;5053131;28;20079;-62
2022/10/28 05:30:25;;;;;;;10.15;4.55;;;19.20;98.40;;;;;;5054734;28;20032;-67
2022/10/28 05:32:57;;;;;;;12.00;4.15;;;19.20;98.40;;;;;;5053145;28;20029;-66
2022/10/28 05:35:22;;;;;;;13.45;4.93;;;19.10;98.40;;;;;;5055876;28;20049;-62
2022/10/28 05:37:48;;;;;;;15.73;4.65;;;19.10;98.50;;;;;;5054340;28;20083;-66
2022/10/28 05:40:13;;;;;;;10.75;4.22;;;19.10;98.60;;;;;;5054725;28;20159;-64
2022/10/28 05:42:41;;;;;;;10.45;4.75;;;19.10;98.40;;;;;;5051518;28;20144;-67
2022/10/28 05:45:07;;;;;;;10.38;4.40;;;19.10;98.50;;;;;;5053323;28;20035;-63
2022/10/28 05:47:33;;;;;;;12.18;4.50;;;19.10;98.40;;;;;;5063226;28;20033;-65
2022/10/28 05:49:58;;;;;;;9.90;3.58;;;19.20;98.30;;;;;;5051806;28;20496;-63
2022/10/28 05:52:24;;;;;;;7.07;3.58;;;19.30;98.30;;;;;;5054402;28;20082;-63
2022/10/28 05:54:49;;;;;;;11.35;3.97;;;19.20;98.10;;;;;;5048527;28;20458;-60
2022/10/28 05:57:15;;;;;;;8.45;3.95;;;19.30;98.20;;;;;;5054700;28;20470;-61
2022/10/28 05:59:40;;;;;;;11.90;4.22;;;19.40;98.00;;;;;;5048998;28;20025;-59
2022/10/28 06:02:13;;;;;;;9.82;3.50;;;19.40;97.90;;;;;;5045240;28;20036;-61
2022/10/28 06:04:40;;;;;;;10.52;3.75;;;19.50;97.80;;;;;;5068168;28;20074;-63
2022/10/28 06:07:05;;;;;;;12.27;4.05;;;19.50;97.50;;;;;;5032709;28;20123;-61
2022/10/28 06:09:31;;;;;;;11.93;3.78;;;19.50;97.50;;;;;;5050373;28;20113;-60
2022/10/28 06:11:56;;;;;;;10.50;4.03;;;19.50;97.40;;;;;;5051878;28;20060;-60
2022/10/28 06:14:22;;;;;;;14.73;4.28;;;19.50;97.50;;;;;;5054744;28;20117;-61
2022/10/28 06:16:47;;;;;;;7.78;3.75;;;19.50;97.40;;;;;;5050566;28;20013;-62
2022/10/28 06:19:13;;;;;;;9.73;3.90;;;19.50;97.30;;;;;;5051909;28;20405;-59
2022/10/28 06:21:39;;;;;;;12.50;4.72;;;19.50;97.30;;;;;;5052810;28;20032;-60
2022/10/28 06:24:05;;;;;;;15.05;4.68;;;19.50;97.40;;;;;;5055752;28;20033;-63
2022/10/28 06:26:30;;;;;;;12.18;4.32;;;19.50;97.50;;;;;;5047690;28;20042;-60
2022/10/28 06:28:56;;;;;;;10.25;3.78;;;19.50;97.50;;;;;;5051879;28;20029;-60
2022/10/28 06:31:21;;;;;;;12.60;4.55;;;19.40;97.50;;;;;;5046735;28;20461;-61
2022/10/28 06:33:47;;;;;;;11.68;4.00;;;19.50;97.40;;;;;;5044436;28;20021;-62
2022/10/28 06:36:12;;;;;;;14.68;4.40;;;19.50;97.60;;;;;;5048317;28;20025;-66
2022/10/28 06:38:38;;;;;;;14.18;4.40;;;19.60;97.40;;;;;;5045572;28;20021;-68
2022/10/28 06:41:03;;;;;;;12.52;4.10;;;19.60;97.40;;;;;;5046176;28;20366;-63
2022/10/28 06:43:29;;;;;;;10.63;4.05;;;19.50;97.50;;;;;;5040604;28;20018;-63
2022/10/28 06:45:56;;;;;;;6.60;3.22;;;19.50;97.50;;;;;;5052990;28;20044;-66
2022/10/28 06:48:22;;;;;;;11.48;4.20;;;19.50;97.60;;;;;;5048212;28;20549;-61
2022/10/28 06:50:48;;;;;;;11.45;4.00;;;19.40;97.70;;;;;;5045631;28;20024;-64
2022/10/28 06:53:13;;;;;;;13.60;3.70;;;19.50;97.60;;;;;;5049613;28;20036;-64
2022/10/28 06:55:39;;;;;;;8.85;3.90;;;19.50;97.60;;;;;;5055872;28;20060;-66
2022/10/28 06:58:04;;;;;;;10.05;4.10;;;19.50;97.70;;;;;;5058008;28;20033;-61
2022/10/28 07:00:32;;;;;;;9.55;3.80;;;19.40;97.70;;;;;;5058894;28;20088;-64
2022/10/28 07:02:58;;;;;;;12.13;4.03;;;19.50;97.70;;;;;;5055411;28;20079;-60
2022/10/28 07:05:25;;;;;;;7.38;3.70;;;19.50;97.80;;;;;;5056764;28;20020;-59
2022/10/28 07:07:51;;;;;;;7.75;3.30;;;19.50;97.60;;;;;;5059368;28;20094;-61
2022/10/28 07:10:17;;;;;;;12.40;4.43;;;19.50;97.70;;;;;;5062392;28;20424;-60
2022/10/28 07:12:42;;;;;;;14.45;4.03;;;19.40;97.70;;;;;;5055560;28;20367;-69
2022/10/28 07:15:09;;;;;;;13.07;3.88;;;19.30;97.80;;;;;;5049270;28;20018;-69
2022/10/28 07:17:34;;;;;;;12.80;4.03;;;19.30;98.00;;;;;;5049897;28;20024;-68
2022/10/28 07:20:00;;;;;;;10.27;3.58;;;19.20;98.20;;;;;;5053235;28;20029;-65
2022/10/28 07:22:25;;;;;;;7.15;3.75;;;19.10;98.30;;;;;;5055464;28;20029;-69
2022/10/28 07:24:51;;;;;;;11.13;4.28;;;19.10;98.30;;;;;;5057266;28;20111;-69
2022/10/28 07:27:16;;;;;;;11.52;4.10;;;19.10;98.30;;;;;;5073688;28;20127;-69
2022/10/28 07:29:42;;;;;;;13.25;4.15;;;19.20;98.30;;;;;;5073598;28;20034;-69
2022/10/28 07:32:07;;;;;;;9.35;3.80;;;19.10;98.50;;;;;;5073446;28;20025;-69
2022/10/28 07:34:33;;;;;;;9.45;3.92;;;19.10;98.60;;;;;;5053734;28;20079;-68
2022/10/28 07:36:58;;;;;;;14.32;3.95;;;19.20;98.50;;;;;;5048172;28;20021;-69
2022/10/28 07:39:24;;;;;;;10.65;3.47;;;19.10;98.50;;;;;;5043709;28;20024;-67
2022/10/28 07:41:49;;;;;;;11.55;4.47;;;19.10;98.70;;;;;;5049268;28;20374;-69
2022/10/28 07:44:15;;;;;;;16.38;4.22;;;19.10;98.70;;;;;;5048949;28;20099;-60
2022/10/28 07:46:41;;;;;;;10.98;3.97;;;19.30;98.30;;;;;;5054419;28;20073;-59
2022/10/28 07:49:07;;;;;;;9.27;3.25;;;19.40;98.00;;;;;;5051312;28;20038;-61
2022/10/28 07:51:33;;;;;;;8.15;3.40;;;19.40;97.80;;;;;;5051428;28;20139;-66
2022/10/28 07:53:58;;;;;;;8.70;3.45;;;19.40;97.90;;;;;;5050992;28;20092;-60
2022/10/28 07:56:24;;;;;;;10.77;3.67;;;19.40;98.00;;;;;;5051858;28;20042;-61
2022/10/28 07:58:50;;;;;;;8.65;3.42;;;19.40;98.20;;;;;;5050928;28;20044;-65
2022/10/28 08:01:20;;;;;;;7.95;3.92;;;19.40;98.30;;;;;;5053614;28;20041;-68
2022/10/28 08:03:46;;;;;;;7.95;3.88;;;19.40;98.20;;;;;;5052587;28;20082;-67
2022/10/28 08:06:17;;;;;;;8.35;3.42;;;19.40;98.40;;;;;;5049839;28;20029;-64
2022/10/28 08:08:45;;;;;;;9.68;3.55;;;19.40;98.70;;;;;;5041812;28;20086;-60
2022/10/28 08:11:21;;;;;;;8.27;2.85;;;19.50;98.90;;;;;;5052479;28;20426;-67
2022/10/28 08:13:47;;;;;;;12.43;4.15;;;19.40;99.00;;;;;;5051042;28;20506;-64
2022/10/28 08:16:13;;;;;;;9.52;3.38;;;19.40;98.90;;;;;;5049783;28;20064;-66
2022/10/28 08:18:39;;;;;;;7.35;3.70;;;19.50;99.00;;;;;;5049309;28;20024;-67
2022/10/28 08:21:07;;;;;;;10.30;3.60;;;19.50;99.00;;;;;;5051992;28;20025;-63
2022/10/28 08:23:33;;;;;;;11.38;4.20;;;19.50;98.90;;;;;;5052751;28;20106;-61
2022/10/28 08:25:59;;;;;;;9.85;3.55;;;19.50;99.00;;;;;;5052472;28;20063;-60
2022/10/28 08:28:24;;;;;;;12.23;3.50;;;19.50;98.80;;;;;;5052683;28;20466;-61
2022/10/28 08:30:50;;;;;;;11.88;4.50;;;19.50;98.90;;;;;;5052451;28;20105;-63
2022/10/28 08:33:16;;;;;;;11.57;4.00;;;19.50;98.80;;;;;;5050994;28;20049;-62
2022/10/28 08:35:41;;;;;;;12.73;3.50;;;19.50;98.80;;;;;;5052577;28;20071;-63
2022/10/28 08:38:08;;;;;;;12.25;4.60;;;19.50;98.70;;;;;;5051282;28;20029;-62
2022/10/28 08:40:42;;;;;;;10.88;4.05;;;19.60;98.70;;;;;;5052617;28;20027;-66
2022/10/28 08:43:26;;;;;;;11.35;4.60;;;19.60;98.70;;;;;;5052242;28;20461;-64
2022/10/28 08:46:13;;;;;;;13.30;5.03;;;19.60;98.70;;;;;;5052796;28;20032;-63
2022/10/28 08:48:40;;;;;;;12.48;4.05;;;19.60;98.70;;;;;;5053894;28;20033;-66
2022/10/28 08:51:15;;;;;;;8.63;4.13;;;19.60;98.70;;;;;;5053741;28;20031;-63
2022/10/28 08:54:12;;;;;;;13.65;4.47;;;19.60;98.70;;;;;;5051702;28;20025;-66
2022/10/28 08:56:44;;;;;;;14.75;4.63;;;19.60;98.80;;;;;;5039286;28;20056;-63
2022/10/28 08:59:16;;;;;;;12.07;4.55;;;19.60;99.00;;;;;;5042264;28;20056;-64
2022/10/28 09:01:53;;;;;;;11.82;4.50;;;19.50;99.10;;;;;;5056528;28;20043;-64
2022/10/28 09:04:38;;;;;;;15.80;4.82;;;19.60;99.10;;;;;;5046378;28;20036;-64
2022/10/28 09:07:08;;;;;;;11.10;4.68;;;19.60;99.20;;;;;;5057793;28;20029;-66
2022/10/28 09:09:33;;;;;;;12.32;4.72;;;19.60;99.30;;;;;;5059475;28;20462;-62
2022/10/28 09:12:11;;;;;;;15.18;4.35;;;19.60;99.40;;;;;;5050392;28;20087;-64
2022/10/28 09:15:04;;;;;;;8.30;3.97;;;19.60;99.50;;;;;;5055389;28;20031;-66
2022/10/28 09:17:54;;;;;;;8.20;3.38;;;19.80;99.10;;;;;;5058302;28;20078;-66
2022/10/28 09:20:28;;;;;;;8.73;3.92;;;19.80;99.10;;;;;;5054399;28;20374;-67
2022/10/28 09:23:17;;;;;;;7.50;3.70;;;19.90;99.00;;;;;;5053539;28;20102;-63
2022/10/28 09:25:52;;;;;;;6.47;3.05;;;19.90;99.00;;;;;;5041317;28;20117;-61
2022/10/28 09:28:44;;;;;;;9.38;3.97;;;19.90;98.90;;;;;;5058665;28;20045;-66
2022/10/28 09:31:34;;;;;;;7.57;2.80;;;19.90;98.70;;;;;;5049980;28;20123;-68
2022/10/28 09:34:22;;;;;;;8.02;3.55;;;19.90;98.30;;;;;;5051696;28;20052;-66
2022/10/28 09:36:53;;;;;;;6.40;3.15;;;20.00;98.40;;;;;;5069728;28;20381;-69
2022/10/28 09:39:26;;;;;;;9.13;3.60;;;19.90;98.30;;;;;;5065570;28;20029;-66
2022/10/28 09:41:53;;;;;;;7.82;3.15;;;19.90;98.10;;;;;;5057461;28;20024;-64
2022/10/28 09:44:27;;;;;;;7.50;2.78;;;19.90;98.20;;;;;;5055041;28;20509;-65
2022/10/28 09:46:57;;;;;;;8.50;2.63;;;20.00;98.30;;;;;;5050699;28;20035;-65
2022/10/28 09:49:30;;;;;;;6.85;2.72;;;20.00;98.40;;;;;;5055176;28;20458;-64
2022/10/28 09:52:07;;;;;;;7.45;2.60;;;20.00;98.40;;;;;;5053304;28;20032;-63
2022/10/28 09:54:36;;;;;;;10.98;3.08;;;20.00;98.40;;;;;;5053515;28;20040;-64
2022/10/28 09:57:03;;;;;;;7.30;2.90;;;20.00;98.40;;;;;;5053069;28;20439;-66
2022/10/28 09:59:29;;;;;;;8.10;3.40;;;20.00;98.30;;;;;;5052338;28;20028;-66
2022/10/28 10:01:55;;;;;;;10.55;3.40;;;20.00;98.60;;;;;;5053206;28;20108;-73
2022/10/28 10:04:23;;;;;;;6.38;2.72;;;20.00;98.70;;;;;;5051830;28;20359;-66
2022/10/28 10:06:53;;;;;;;4.95;3.05;;;20.00;98.60;;;;;;5053934;28;20036;-65
2022/10/28 10:09:28;;;;;;;8.05;3.22;;;20.00;98.90;;;;;;5054215;28;20048;-65
2022/10/28 10:12:01;;;;;;;35.78;6.82;;;20.00;98.90;;;;;;5055013;28;20017;-67
2022/10/28 10:14:49;;;;;;;14.00;4.60;;;20.00;99.60;;;;;;5053964;28;20040;-68
2022/10/28 10:17:15;;;;;;;16.08;4.18;;;20.10;99.10;;;;;;5052009;28;20147;-69
2022/10/28 10:19:58;;;;;;;15.48;4.38;;;20.10;98.70;;;;;;5050970;28;20078;-66
2022/10/28 10:22:33;;;;;;;16.48;4.60;;;20.20;98.30;;;;;;5056436;28;20070;-66
2022/10/28 10:24:59;;;;;;;15.00;4.35;;;20.20;98.10;;;;;;5063086;28;20099;-66
2022/10/28 10:27:26;;;;;;;15.02;4.30;;;20.30;97.90;;;;;;5056879;28;20045;-67
2022/10/28 10:29:53;;;;;;;16.77;5.22;;;20.20;97.90;;;;;;5053297;28;20354;-67
2022/10/28 10:32:21;;;;;;;9.70;3.78;;;20.20;98.00;;;;;;5052898;28;20037;-65
2022/10/28 10:35:21;;;;;;;14.55;4.68;;;20.20;98.10;;;;;;5054235;28;20108;-66
2022/10/28 10:37:47;;;;;;;13.05;4.22;;;20.20;98.20;;;;;;5046882;28;20033;-65
2022/10/28 10:40:32;;;;;;;18.50;4.60;;;20.20;98.30;;;;;;5052925;28;20496;-66
2022/10/28 10:43:34;;;;;;;9.70;4.35;;;20.20;98.30;;;;;;5052985;28;20043;-65
2022/10/28 10:46:03;;;;;;;13.40;4.45;;;20.20;98.30;;;;;;5033012;28;20067;-66
2022/10/28 10:48:35;;;;;;;20.25;4.68;;;20.20;98.20;;;;;;5047500;28;20040;-65
2022/10/28 10:51:23;;;;;;;11.60;4.18;;;20.20;98.20;;;;;;5053309;28;20429;-67
2022/10/28 10:53:53;;;;;;;12.60;3.85;;;20.30;98.10;;;;;;5053220;28;20020;-65
2022/10/28 10:56:31;;;;;;;10.55;4.20;;;20.30;98.20;;;;;;5054373;28;20477;-66
2022/10/28 10:59:01;;;;;;;14.70;4.60;;;20.30;98.20;;;;;;5054360;28;20428;-65
2022/10/28 11:01:32;;;;;;;11.30;4.28;;;20.40;98.20;;;;;;5053589;28;20032;-66
2022/10/28 11:04:04;;;;;;;11.48;3.92;;;20.40;98.10;;;;;;5054426;28;20086;-68
2022/10/28 11:06:32;;;;;;;9.18;4.53;;;20.30;98.10;;;;;;5053064;28;20389;-65
2022/10/28 11:09:01;;;;;;;15.30;4.28;;;20.40;98.20;;;;;;5054131;28;20013;-65
2022/10/28 11:11:34;;;;;;;12.65;4.78;;;20.40;98.20;;;;;;5051310;28;20037;-65
2022/10/28 11:14:07;;;;;;;15.02;4.43;;;20.40;98.10;;;;;;5051411;28;20043;-65
2022/10/28 11:16:44;;;;;;;16.83;4.35;;;20.40;98.00;;;;;;5049792;28;20446;-65
2022/10/28 11:19:31;;;;;;;13.13;4.40;;;20.40;98.00;;;;;;5053758;28;20021;-65
2022/10/28 11:22:09;;;;;;;15.57;4.38;;;20.50;97.90;;;;;;5051441;28;20083;-67
2022/10/28 11:24:46;;;;;;;15.80;4.70;;;20.50;97.80;;;;;;5042771;28;20096;-66
2022/10/28 11:27:53;;;;;;;13.57;3.88;;;20.50;97.70;;;;;;5047149;28;20076;-65
2022/10/28 11:30:25;;;;;;;11.60;3.55;;;20.50;97.80;;;;;;5047171;28;20080;-65
2022/10/28 11:33:00;;;;;;;13.10;4.15;;;20.50;97.70;;;;;;5047279;28;20075;-65
2022/10/28 11:35:31;;;;;;;18.67;4.60;;;20.50;97.90;;;;;;5040116;28;20108;-65
2022/10/28 11:38:19;;;;;;;13.57;3.70;;;20.50;97.90;;;;;;5047446;28;20095;-66
2022/10/28 11:41:28;;;;;;;10.60;3.60;;;20.50;98.00;;;;;;5049112;28;20025;-66
2022/10/28 11:43:56;;;;;;;12.55;4.63;;;20.50;98.00;;;;;;5044561;28;20436;-65
2022/10/28 11:46:54;;;;;;;12.32;3.75;;;20.50;98.10;;;;;;5049571;28;20043;-64
2022/10/28 11:49:31;;;;;;;14.23;4.13;;;20.50;98.10;;;;;;5040178;28;20032;-68
2022/10/28 11:52:19;;;;;;;14.48;4.10;;;20.50;98.20;;;;;;5041976;28;20035;-66
2022/10/28 11:54:57;;;;;;;15.52;3.55;;;20.50;98.20;;;;;;5032752;28;20044;-66
2022/10/28 11:57:36;;;;;;;15.05;3.85;;;20.50;98.20;;;;;;5052159;28;20083;-66
2022/10/28 12:00:45;;;;;;;17.17;4.20;;;20.60;98.30;;;;;;5052804;28;20466;-66
2022/10/28 12:03:38;;;;;;;13.00;3.78;;;20.60;98.20;;;;;;5052610;28;20063;-67
2022/10/28 12:06:17;;;;;;;9.70;3.83;;;20.60;98.20;;;;;;5043634;28;20032;-68
2022/10/28 12:09:14;;;;;;;16.05;3.97;;;20.70;98.10;;;;;;5045877;28;20028;-66
2022/10/28 12:11:51;;;;;;;13.18;3.72;;;20.60;98.20;;;;;;5037388;28;20022;-73
2022/10/28 12:14:38;;;;;;;13.77;3.95;;;20.70;98.20;;;;;;5047590;28;20047;-65
2022/10/28 12:17:13;;;;;;;12.85;3.78;;;20.70;98.10;;;;;;5048276;28;20025;-70
2022/10/28 12:19:53;;;;;;;15.38;4.30;;;20.70;98.00;;;;;;5045192;28;20025;-65
2022/10/28 12:22:46;;;;;;;11.15;3.80;;;20.70;98.30;;;;;;5044970;28;20029;-65
2022/10/28 12:25:22;;;;;;;12.05;4.20;;;20.60;98.10;;;;;;5044620;28;20409;-66
2022/10/28 12:27:51;;;;;;;16.92;4.70;;;20.70;98.40;;;;;;5047868;28;20040;-69
2022/10/28 12:30:23;;;;;;;16.25;4.72;;;20.70;98.70;;;;;;5051755;28;20170;-68
2022/10/28 12:32:53;;;;;;;18.27;4.85;;;20.70;99.10;;;;;;5053291;28;20559;-71
2022/10/28 12:35:24;;;;;;;12.02;3.67;;;20.70;99.00;;;;;;5050662;28;20021;-65
2022/10/28 12:38:01;;;;;;;16.17;4.35;;;20.70;98.90;;;;;;5050329;28;20489;-67
2022/10/28 12:40:49;;;;;;;10.45;3.92;;;20.70;98.90;;;;;;5047885;28;20281;-69
2022/10/28 12:43:31;;;;;;;14.60;4.38;;;20.80;98.90;;;;;;5054820;28;20478;-65
2022/10/28 12:45:57;;;;;;;15.88;4.57;;;20.80;98.80;;;;;;5045470;28;20044;-71
2022/10/28 12:48:28;;;;;;;14.73;4.47;;;20.80;98.50;;;;;;5045337;28;20037;-66
2022/10/28 12:51:02;;;;;;;14.23;4.25;;;20.80;98.50;;;;;;5051349;28;20049;-67
2022/10/28 12:54:18;;;;;;;17.95;4.10;;;20.80;98.50;;;;;;5050789;28;20025;-71
2022/10/28 12:56:56;;;;;;;12.07;4.10;;;20.90;98.70;;;;;;5061649;28;20513;-66
2022/10/28 12:59:32;;;;;;;14.40;4.38;;;20.90;98.90;;;;;;5051597;28;20159;-70
2022/10/28 13:01:59;;;;;;;14.48;3.80;;;20.90;98.90;;;;;;5052222;28;20036;-69
2022/10/28 13:04:27;;;;;;;18.52;4.53;;;20.90;98.90;;;;;;5051708;28;20021;-66